Tiempo atmosférico en la estación meteorológica de Cabrales, Asturias (458 m.)



Fecha
DESCASC
Temp. máxima en grados centígrados (hora)
DESCASC
Temp. mínima en grados centígrados (hora)
DESCASC
Temp. media en grados centígrados
DESCASC
Racha de viento máxima en m/sg (hora)
DESCASC
Velocidad máxima media en intervalos de 10 minutos(hora)
DESCASC
Precipitaciones diarias en mm
DESCASC
Precipitaciones de 00:00 a 06:00 en mm
DESCASC
Precipitaciones de 06:00 a 12:00 en mm
DESCASC
Precipitaciones de 12:00 a 18:00 en mm
DESCASC
Precipitaciones de 18:00 a 24:00 en mm
DESCASC
17-09-2020 27.9 (15:40) 17.6 (08:30) 22.8 7.5 (05:00) 5 (05:10) 0 0 0 0 0
16-09-2020 26.8 (14:10) 15.3 (07:30) 21 5.83 (23:59) 3.89 (23:50) 0 0 0 0 0
15-09-2020 25.7 (14:30) 15.1 (08:30) 20.4 10.83 (05:10) 6.67 (05:10) 4.4 4.2 0.2 0 0
14-09-2020 27.7 (13:00) 16.5 (00:00) 22.1 13.61 (21:20) 8.61 (21:20) 2.2 0 0 0 2.2
13-09-2020 32.7 (15:50) 14.4 (00:00) 23.6 5.56 (10:10) 4.17 (19:40) 0 0 0 0 0
12-09-2020 26.1 (15:20) 15 (00:00) 20.6 9.44 (18:00) 6.11 (17:50) 0 0 0 0 0
11-09-2020 26.2 (16:50) 12.9 (00:00) 19.6 5.83 (18:50) 3.89 (20:20) 0 0 0 0 0
10-09-2020 25.6 (17:30) 12.4 (00:00) 19 5.28 (15:30) 3.33 (21:50) 0 0 0 0 0
09-09-2020 25.1 (17:20) 12.3 (00:00) 18.7 6.39 (15:30) 4.44 (15:30) 0 0 0 0 0
08-09-2020 22.5 (16:50) 9.6 (00:00) 16.1 12.78 (14:40) 8.33 (14:00) 0 0 0 0 0
07-09-2020 21 (13:40) 11.9 (08:00) 16.4 11.11 (16:40) 6.94 (14:50) 0.2 0.2 0 0 0
06-09-2020 18 (13:50) 13.2 (00:00) 15.6 5.28 (02:00) 3.33 (01:20) 0.2 0.2 0 0 0
05-09-2020 18.4 (00:00) 15.2 (00:00) 16.8 5 (01:20) 3.89 (01:40) 6.8 0.4 3.6 2.6 0.2
04-09-2020 32.4 (15:00) 15.9 (00:00) 24.2 6.39 (22:40) 4.44 (22:40) 0 0 0 0 0
03-09-2020 28.2 (18:10) 12.8 (00:00) 20.5 5.28 (16:50) 3.89 (16:40) 0 0 0 0 0
02-09-2020 24.1 (16:00) 11.6 (00:00) 17.9 7.5 (19:20) 4.72 (19:20) 0 0 0 0 0
01-09-2020 22.3 (13:00) 12.7 (00:00) 17.5 7.22 (14:10) 5 (14:10) 0 0 0 0 0
31-08-2020 23.4 (16:00) 8.2 (00:00) 15.8 5.28 (19:50) 3.89 (19:50) 0 0 0 0 0
30-08-2020 17.7 (17:50) 10 (00:00) 13.9 8.06 (12:30) 5.28 (17:20) 10.4 7.8 1.8 0.8 0
29-08-2020 13.6 (14:20) 10.4 (00:00) 12 13.89 (16:50) 7.78 (15:30) 58.8 1.4 12.8 40 4.6
28-08-2020 21.1 (14:40) 13.1 (00:00) 17.1 16.67 (15:10) 11.11 (15:30) 2.4 1.2 0.6 0 0.6
27-08-2020 26.6 (13:10) 17.7 (00:00) 22.2 10.83 (14:40) 7.5 (14:50) 0 0 0 0 0
26-08-2020 27.8 (14:30) 17.6 (00:00) 22.7 6.94 (16:00) 4.17 (16:00) 0 0 0 0 0
25-08-2020 29 (16:00) 16.5 (00:00) 22.8 10.28 (18:10) 7.22 (18:00) 0 0 0 0 0
24-08-2020 26.6 (16:20) 15.1 (00:00) 20.9 7.22 (14:20) 4.44 (20:50) 0 0 0 0 0
23-08-2020 25.2 (14:20) 13.2 (00:00) 19.2 5.56 (19:50) 2.78 (13:40) 0 0 0 0 0
22-08-2020 20.2 (12:50) 15.5 (00:00) 17.9 5.28 (14:40) 3.89 (14:30) 3.2 1.4 1.8 0 0
21-08-2020 23.6 (14:20) 16.8 (00:00) 20.2 9.44 (15:30) 6.11 (15:30) 0.2 0 0.2 0 0

Gráficas

Temp. máximas Temp. mínimas Temp. medias Precipitaciones Rachas de viento máximas Velocidades máximas media en intervalos de 10 minutos

Datos horarios

Fecha y hora oficial Temperatura (ºC) Velocidad del viento (km/h) Dirección del viento Racha (km/h) Dirección de racha Precipitación (mm) Presión (hPa) Tendencia (hPa) Humedad (%)
2020-09-19 23:00:00 15.3 13 Noroeste 23 Noroeste 0 -- -- 93
2020-09-19 22:00:00 16 8 Oeste 12 Noroeste 0 -- -- 86
2020-09-19 21:00:00 16.7 6 Noroeste 18 Oeste 0 -- -- 86
2020-09-19 20:00:00 17.4 14 Oeste 18 Oeste 0 -- -- 85
2020-09-19 19:00:00 18 11 Noroeste 14 Noroeste 0 -- -- 83
2020-09-19 18:00:00 20.4 6 Oeste 16 Oeste 0 -- -- 79
2020-09-19 17:00:00 18.8 5 Noroeste 11 Norte 0 -- -- 91
2020-09-19 16:00:00 17.1 5 Noroeste 21 Norte 0 -- -- 97
2020-09-19 15:00:00 17 8 Norte 22 Noroeste 0.2 -- -- 98
2020-09-19 14:00:00 15.6 12 Noroeste 27 Oeste 1.8 -- -- 100
2020-09-19 13:00:00 15.1 11 Noroeste 18 Norte 2.2 -- -- 98
2020-09-19 12:00:00 15.6 3 Nordeste 10 Nordeste 0 -- -- 100
2020-09-19 11:00:00 14.9 3 Sudoeste 9 Sudoeste 0.2 -- -- 100
2020-09-19 10:00:00 14.8 2 Oeste 10 Nordeste 0.2 -- -- 100
2020-09-19 09:00:00 14.4 2 Sur 7 Este 0.4 -- -- 100
2020-09-19 08:00:00 14.5 3 Nordeste 6 Sudoeste 0.6 -- -- 99
2020-09-19 07:00:00 14.7 0 Calma 9 Sudoeste 0.4 -- -- 99
2020-09-19 06:00:00 14.7 9 Oeste 14 Sudoeste 0.2 -- -- 99
2020-09-19 05:00:00 14.9 2 Este 12 Norte 0 -- -- 98
2020-09-19 04:00:00 14.9 10 Oeste 15 Sudoeste 0.2 -- -- 99
2020-09-19 03:00:00 15.1 4 Este 8 Norte 0.2 -- -- 99
2020-09-19 02:00:00 15.2 3 Sudoeste 12 Este 0.4 -- -- 99
2020-09-19 01:00:00 15.3 3 Este 15 Sudeste 0.4 -- -- 98
2020-09-19 00:00:00 16 5 Este 14 Oeste 0.2 -- -- 95
2020-09-18 23:00:00 16.1 6 Sudeste 13 Este 0 -- -- 91
2020-09-18 22:00:00 16.7 0 Calma 9 Este 0 -- -- 90
2020-09-18 21:00:00 17 6 Este 20 Este 0 -- -- 87
2020-09-18 20:00:00 18.8 8 Sur 23 Este 0 -- -- 84
2020-09-18 19:00:00 19.9 12 Este 21 Sudeste 0 -- -- 81
2020-09-18 18:00:00 22.3 13 Este 26 Este 0 -- -- 74
2020-09-18 17:00:00 24.1 5 Sudeste 17 Oeste 0 -- -- 68
2020-09-18 16:00:00 23.8 11 Oeste 21 Noroeste 0 -- -- 67
2020-09-18 15:00:00 22.3 6 Norte 37 Sudoeste 0 -- -- 67
2020-09-18 14:00:00 22.3 6 Sudoeste 17 Sur 0 -- -- 73
2020-09-18 13:00:00 19.4 10 Este 28 Este 0 -- -- 87
2020-09-18 12:00:00 17.1 14 Sudeste 33 Este 0 -- -- 94
2020-09-18 11:00:00 16.1 3 Norte 15 Este 0 -- -- 96
2020-09-18 10:00:00 15.4 13 Sudeste 41 Sudoeste 1.6 -- -- 94
2020-09-18 09:00:00 16.2 9 Noroeste 17 Noroeste 0.8 -- -- 99
2020-09-18 08:00:00 16.4 12 Sudeste 29 Este 0 -- -- 97
2020-09-18 07:00:00 17 5 Sudeste 15 Sudeste 0 -- -- 96
2020-09-18 06:00:00 17.4 3 Noroeste 15 Sudeste 0 -- -- 97
2020-09-18 05:00:00 17.8 8 Este 23 Oeste 0 -- -- 95
2020-09-18 04:00:00 18.1 13 Sudoeste 19 Oeste 0 -- -- 94
2020-09-18 03:00:00 19.4 10 Norte 17 Norte 1.2 -- -- 89
2020-09-18 02:00:00 19.7 8 Sudoeste 11 Sudoeste 0 -- -- 85
2020-09-18 01:00:00 20 6 Norte 11 Sudoeste 0 -- -- 83
2020-09-18 00:00:00 20.5 4 Sur 12 Sudeste 0 -- -- 82
2020-09-17 23:00:00 21.1 2 Norte 8 Sudoeste 0 -- -- 79
2020-09-17 22:00:00 21.4 3 Oeste 11 Este 0 -- -- 80
2020-09-17 21:00:00 22.3 5 Este 14 Noroeste 0 -- -- 80
2020-09-17 20:00:00 23.5 3 Sudoeste 12 Oeste 0 -- -- 75
2020-09-17 19:00:00 24.1 12 Oeste 15 Oeste 0 -- -- 75
2020-09-17 18:00:00 25.8 7 Oeste 11 Oeste 0 -- -- 69
2020-09-17 17:00:00 26.6 6 Sudoeste 9 Oeste 0 -- -- 62
2020-09-17 16:00:00 26.9 6 Oeste 9 Oeste 0 -- -- 60
2020-09-17 15:00:00 25.8 2 Nordeste 10 Nordeste 0 -- -- 67
2020-09-17 14:00:00 25.1 4 Oeste 11 Sudoeste 0 -- -- 67
2020-09-17 13:00:00 24.6 4 Sudoeste 9 Sudoeste 0 -- -- 74
2020-09-17 12:00:00 21.9 3 Oeste 8 Sudeste 0 -- -- 89
2020-09-17 11:00:00 19.5 4 Este 12 Sudeste 0 -- -- 97
2020-09-17 10:00:00 18.1 3 Sudoeste 7 Este 0 -- -- 100
2020-09-17 09:00:00 17.7 5 Este 13 Sudeste 0 -- -- 100
2020-09-17 08:00:00 17.8 9 Sur 13 Sudeste 0 -- -- 99
2020-09-17 07:00:00 18.1 2 Este 17 Oeste 0 -- -- 99
2020-09-17 06:00:00 18 6 Oeste 25 Sudeste 0 -- -- 100
2020-09-17 05:00:00 18 16 Sudeste 27 Sudeste 0 -- -- 100
2020-09-17 04:00:00 18 5 Sudoeste 8 Sudoeste 0 -- -- 100
2020-09-17 03:00:00 18.2 5 Sudoeste 22 Sudeste 0 -- -- 100
2020-09-17 02:00:00 18.3 13 Sudeste 20 Sudeste 0 -- -- 100
2020-09-17 01:00:00 18.7 14 Sudeste 24 Sudeste 0 -- -- 100
2020-09-17 00:00:00 18.8 12 Sudeste 21 Sudeste 0 -- -- 99
2020-09-16 23:00:00 19 6 Sudeste 12 Sudeste 0 -- -- 98
2020-09-16 22:00:00 19 8 Sudeste 10 Sudeste 0 -- -- 97
2020-09-16 21:00:00 19.7 3 Sudoeste 12 Sur 0 -- -- 94
2020-09-16 20:00:00 21 7 Sur 14 Sudeste 0 -- -- 89
2020-09-16 19:00:00 23.2 8 Sudeste 17 Sudeste 0 -- -- 80
2020-09-16 18:00:00 24.5 10 Sudeste 19 Este 0 -- -- 78
2020-09-16 17:00:00 26.6 6 Sur 11 Sudeste 0 -- -- 71
2020-09-16 16:00:00 26.2 2 Norte 10 Sudeste 0 -- -- 72
2020-09-16 15:00:00 26.6 6 Sudeste 10 Sur 0 -- -- 65
2020-09-16 14:00:00 26.7 6 Sur 10 Sudeste 0 -- -- 63
2020-09-16 13:00:00 24 3 Este 6 Oeste 0 -- -- 79
2020-09-16 12:00:00 20.8 2 Sudoeste 6 Sudoeste 0 -- -- 89
2020-09-16 11:00:00 17.9 2 Sur 6 Oeste 0 -- -- 100
2020-09-16 10:00:00 16.3 2 Oeste 6 Sudoeste 0 -- -- 100
2020-09-16 09:00:00 15.4 2 Sur 6 Sudoeste 0 -- -- 100
2020-09-16 08:00:00 15.3 3 Oeste 9 Oeste 0 -- -- 100
2020-09-16 07:00:00 15.5 0 Calma 8 Sudoeste 0 -- -- 100
2020-09-16 06:00:00 15.9 6 Oeste 12 Oeste 0 -- -- 100
2020-09-16 05:00:00 16.3 0 Calma 5 Sudeste 0 -- -- 100
2020-09-16 04:00:00 16.4 0 Calma 4 Sudoeste 0 -- -- 100
2020-09-16 03:00:00 16.8 0 Calma 3 Sudoeste 0 -- -- 100
2020-09-16 02:00:00 17.1 3 Este 8 Nordeste 0 -- -- 99
2020-09-16 01:00:00 17.3 2 Oeste 5 Sudoeste 0 -- -- 99
2020-09-16 00:00:00 17.3 0 Calma 6 Sudoeste 0 -- -- 99
2020-09-15 23:00:00 17.4 4 Sur 12 Sudeste 0 -- -- 98
2020-09-15 22:00:00 17.9 10 Sudeste 18 Sudeste 0 -- -- 97
2020-09-15 21:00:00 18.7 13 Sudeste 21 Sudeste 0 -- -- 93
2020-09-15 20:00:00 20.6 12 Sudeste 20 Sudeste 0 -- -- 87
2020-09-15 19:00:00 23 6 Sudeste 13 Sudeste 0 -- -- 79
2020-09-15 18:00:00 23.3 7 Sudoeste 22 Oeste 0 -- -- 76
2020-09-15 17:00:00 23.6 16 Sudoeste 23 Oeste 0 -- -- 72
2020-09-15 16:00:00 24.8 14 Oeste 22 Oeste 0 -- -- 70
2020-09-15 15:00:00 25.6 10 Oeste 17 Oeste 0 -- -- 65
2020-09-15 14:00:00 25.6 3 Sudoeste 10 Sudoeste 0 -- -- 61
2020-09-15 13:00:00 23.7 3 Sudoeste 8 Sudoeste 0 -- -- 70
2020-09-15 12:00:00 21.6 3 Oeste 7 Sudoeste 0 -- -- 78
2020-09-15 11:00:00 19.2 3 Sudoeste 6 Sur 0 -- -- 93
2020-09-15 10:00:00 16.4 5 Oeste 8 Sudoeste 0 -- -- 99
2020-09-15 09:00:00 15.4 6 Oeste 13 Oeste 0 -- -- 99
2020-09-15 08:00:00 15.6 2 Oeste 11 Oeste 0.2 -- -- 98
2020-09-15 07:00:00 15.8 7 Sudoeste 10 Sudoeste 0 -- -- 99
2020-09-15 06:00:00 15.9 7 Noroeste 39 Sudeste 0 -- -- 100
2020-09-15 05:00:00 15.9 16 Este 28 Sudeste 0 -- -- 100
2020-09-15 04:00:00 16 14 Sudeste 24 Sudeste 2 -- -- 100
2020-09-15 03:00:00 16 12 Norte 32 Nordeste 2.2 -- -- 98
2020-09-15 02:00:00 16.1 11 Oeste 19 Noroeste 0 -- -- 97
2020-09-15 01:00:00 16.4 14 Oeste 20 Oeste 0 -- -- 98
2020-09-15 00:00:00 16.7 9 Oeste 40 Sudeste 0 -- -- 94
2020-09-14 23:00:00 16.6 23 Sudeste 44 Este 0.8 -- -- 97
2020-09-14 22:00:00 18.1 7 Sur 49 Oeste 1.4 -- -- 87
2020-09-14 21:00:00 19 20 Oeste 28 Oeste 0 -- -- 79
2020-09-14 20:00:00 22.4 4 Oeste 15 Sudeste 0 -- -- 64
2020-09-14 19:00:00 24 14 Sudeste 20 Sudeste 0 -- -- 58
2020-09-14 18:00:00 25.9 6 Sur 21 Este 0 -- -- 56
2020-09-14 17:00:00 25.5 8 Este 12 Este 0 -- -- 60
2020-09-14 16:00:00 23.2 8 Oeste 23 Sudeste 0 -- -- 68
2020-09-14 15:00:00 22.3 16 Sudoeste 23 Oeste 0 -- -- 63
2020-09-14 14:00:00 25.6 15 Sudoeste 21 Oeste 0 -- -- 58
2020-09-14 13:00:00 27.7 11 Sudeste 17 Sudeste 0 -- -- 57
2020-09-14 12:00:00 25.4 7 Oeste 14 Oeste 0 -- -- 62
2020-09-14 11:00:00 26.9 5 Sudeste 13 Este 0 -- -- 52
2020-09-14 10:00:00 24.6 7 Sur 21 Este 0 -- -- 52
2020-09-14 09:00:00 23.2 6 Este 15 Este 0 -- -- 50
2020-09-14 08:00:00 23.1 10 Este 19 Sudeste 0 -- -- 47
2020-09-14 07:00:00 20.9 8 Este 17 Este 0 -- -- 55
2020-09-14 06:00:00 21.2 6 Sur 18 Sudoeste 0 -- -- 57
2020-09-14 05:00:00 20.5 9 Este 20 Sudoeste 0 -- -- 59
2020-09-14 04:00:00 20.8 11 Sudeste 20 Sudeste 0 -- -- 57
2020-09-14 03:00:00 20.7 8 Sudeste 22 Sur 0 -- -- 57
2020-09-14 02:00:00 20 5 Este 14 Sudeste 0 -- -- 60
2020-09-14 01:00:00 20.5 6 Este 13 Este 0 -- -- 58
2020-09-14 00:00:00 21.2 8 Sudeste 15 Este 0 -- -- 58
2020-09-13 23:00:00 21.9 13 Sudeste 20 Sudeste 0 -- -- 57
2020-09-13 22:00:00 22.4 9 Este 18 Sudeste 0 -- -- 59
2020-09-13 21:00:00 24.1 13 Sudeste 18 Sudeste 0 -- -- 51
2020-09-13 20:00:00 25.5 14 Sudeste 20 Sudeste 0 -- -- 46
2020-09-13 19:00:00 29.2 11 Sudeste 17 Sudeste 0 -- -- 41
2020-09-13 18:00:00 31.7 9 Sudeste 17 Sudeste 0 -- -- 36
2020-09-13 17:00:00 32.2 8 Sudeste 14 Sudeste 0 -- -- 35
2020-09-13 16:00:00 32.6 6 Sudeste 12 Sur 0 -- -- 35
2020-09-13 15:00:00 32.1 5 Sudeste 9 Sudeste 0 -- -- 36
2020-09-13 14:00:00 30.3 3 Sudeste 8 Sudoeste 0 -- -- 40
2020-09-13 13:00:00 27.5 0 Calma 6 Oeste 0 -- -- 58
2020-09-13 12:00:00 24.6 2 Sudeste 11 Sudeste 0 -- -- 62
2020-09-13 11:00:00 21 3 Este 20 Sudeste 0 -- -- 68
2020-09-13 10:00:00 17 5 Este 14 Sudeste 0 -- -- 78
2020-09-13 09:00:00 14.9 7 Este 13 Sudeste 0 -- -- 88
2020-09-13 08:00:00 14.5 7 Sudeste 14 Sudeste 0 -- -- 91
2020-09-13 07:00:00 14.7 3 Sudeste 8 Este 0 -- -- 99
2020-09-13 06:00:00 15.1 2 Este 7 Este 0 -- -- 100
2020-09-13 05:00:00 15.3 3 Sur 10 Este 0 -- -- 100
2020-09-13 04:00:00 16 5 Sudeste 9 Este 0 -- -- 100
2020-09-13 03:00:00 16.9 6 Sudeste 10 Sudeste 0 -- -- 99
2020-09-13 02:00:00 17.6 5 Sudeste 9 Sur 0 -- -- 100
2020-09-13 01:00:00 17.8 4 Sudeste 9 Este 0 -- -- 100
2020-09-13 00:00:00 17.7 0 Calma 12 Sudeste 0 -- -- 99
2020-09-12 23:00:00 17.8 5 Sudeste 8 Este 0 -- -- 98
2020-09-12 22:00:00 17.8 7 Sudeste 15 Este 0 -- -- 96
2020-09-12 21:00:00 18.9 9 Sudeste 14 Sudeste 0 -- -- 93
2020-09-12 20:00:00 20.8 5 Sudeste 17 Sudeste 0 -- -- 86
2020-09-12 19:00:00 22.5 13 Sudeste 29 Este 0 -- -- 82
2020-09-12 18:00:00 23.1 21 Este 34 Este 0 -- -- 79
2020-09-12 17:00:00 24.7 16 Sudeste 26 Sudeste 0 -- -- 73
2020-09-12 16:00:00 25.8 10 Sudeste 20 Este 0 -- -- 70
2020-09-12 15:00:00 25.8 5 Sudeste 14 Nordeste 0 -- -- 67
2020-09-12 14:00:00 23.8 4 Noroeste 9 Noroeste 0 -- -- 73
2020-09-12 13:00:00 21.8 2 Norte 8 Oeste 0 -- -- 79
2020-09-12 12:00:00 20 3 Noroeste 8 Este 0 -- -- 87
2020-09-12 11:00:00 18.2 9 Este 14 Sudeste 0 -- -- 97
2020-09-12 10:00:00 16.2 0 Calma 4 Noroeste 0 -- -- 100
2020-09-12 09:00:00 15.1 4 Oeste 6 Oeste 0 -- -- 100
2020-09-12 08:00:00 15.1 4 Sudeste 6 Sudeste 0 -- -- 100
2020-09-12 07:00:00 15.6 3 Sudeste 6 Sudeste 0 -- -- 99
2020-09-12 06:00:00 16 0 Calma 8 Sudeste 0 -- -- 99
2020-09-12 05:00:00 16.4 5 Este 8 Este 0 -- -- 99
2020-09-12 04:00:00 16.6 4 Este 9 Sudeste 0 -- -- 99
2020-09-12 03:00:00 16.7 0 Calma 5 Oeste 0 -- -- 99
2020-09-12 02:00:00 16.9 5 Oeste 8 Este 0 -- -- 99
2020-09-12 01:00:00 17.1 7 Sudeste 9 Sudeste 0 -- -- 98
2020-09-12 00:00:00 17.3 3 Sudoeste 5 Sudoeste 0 -- -- 99
2020-09-11 23:00:00 17.1 4 Sudeste 14 Sudeste 0 -- -- 98
2020-09-11 22:00:00 17.5 9 Sudeste 16 Sudeste 0 -- -- 96
2020-09-11 21:00:00 18.6 10 Sudeste 21 Sudeste 0 -- -- 92
2020-09-11 20:00:00 21.2 13 Sudeste 21 Sudeste 0 -- -- 84
2020-09-11 19:00:00 23.2 10 Sudeste 21 Este 0 -- -- 77
2020-09-11 18:00:00 25.5 5 Sur 13 Sur 0 -- -- 69
2020-09-11 17:00:00 26.2 3 Sudoeste 18 Oeste 0 -- -- 68
2020-09-11 16:00:00 25.3 9 Oeste 17 Oeste 0 -- -- 66
2020-09-11 15:00:00 25.5 10 Noroeste 16 Oeste 0 -- -- 65
2020-09-11 14:00:00 25.4 2 Nordeste 9 Este 0 -- -- 60
2020-09-11 13:00:00 24.2 7 Sudeste 12 Sudeste 0 -- -- 60
2020-09-11 12:00:00 20.9 3 Este 8 Sudeste 0 -- -- 76
2020-09-11 11:00:00 17.5 3 Sudoeste 5 Sudoeste 0 -- -- 89
2020-09-11 10:00:00 14.4 3 Sudoeste 6 Sudoeste 0 -- -- 100
2020-09-11 09:00:00 13 0 Calma 4 Sur 0 -- -- 100
2020-09-11 08:00:00 12.9 0 Calma 4 Sudoeste 0 -- -- 99
2020-09-11 07:00:00 13.3 0 Calma 5 Sudeste 0 -- -- 99
2020-09-11 06:00:00 13.6 3 Sudoeste 6 Sudoeste 0 -- -- 100
2020-09-11 05:00:00 13.7 0 Calma 5 Este 0 -- -- 99
2020-09-11 04:00:00 14.1 0 Calma 5 Oeste 0 -- -- 97
2020-09-11 03:00:00 14.1 5 Oeste 10 Noroeste 0 -- -- 98
2020-09-11 02:00:00 14.1 5 Este 8 Este 0 -- -- 96
2020-09-11 01:00:00 14.8 3 Sudeste 8 Sudeste 0 -- -- 95
2020-09-11 00:00:00 15.4 0 Calma 4 Nordeste 0 -- -- 93
2020-09-10 23:00:00 15.6 4 Este 12 Sudeste 0 -- -- 92
2020-09-10 22:00:00 16.3 11 Sudeste 15 Este 0 -- -- 89
2020-09-10 21:00:00 17.7 10 Este 17 Este 0 -- -- 80
2020-09-10 20:00:00 21.5 10 Este 17 Sudeste 0 -- -- 67
2020-09-10 19:00:00 24 3 Nordeste 14 Oeste 0 -- -- 60
2020-09-10 18:00:00 24.8 11 Oeste 18 Oeste 0 -- -- 69
2020-09-10 17:00:00 25.1 8 Oeste 16 Oeste 0 -- -- 67
2020-09-10 16:00:00 24.5 11 Oeste 19 Oeste 0 -- -- 65
2020-09-10 15:00:00 25.2 5 Norte 11 Noroeste 0 -- -- 60
2020-09-10 14:00:00 24.6 4 Sur 11 Este 0 -- -- 54
2020-09-10 13:00:00 23.1 4 Este 9 Sudeste 0 -- -- 62
2020-09-10 12:00:00 20.3 4 Oeste 8 Oeste 0 -- -- 70
2020-09-10 11:00:00 17.7 4 Sudoeste 9 Este 0 -- -- 84
2020-09-10 10:00:00 14.2 0 Calma 3 Oeste 0 -- -- 95
2020-09-10 09:00:00 12.8 0 Calma 3 Oeste 0 -- -- 95
2020-09-10 08:00:00 12.4 0 Calma 6 Nordeste 0 -- -- 97
2020-09-10 07:00:00 13 2 Sudoeste 5 Sudoeste 0 -- -- 99
2020-09-10 06:00:00 12.9 2 Norte 7 Este 0 -- -- 99
2020-09-10 05:00:00 12.9 4 Sudeste 12 Sudeste 0 -- -- 98
2020-09-10 04:00:00 13.6 0 Calma 6 Sudeste 0 -- -- 97
2020-09-10 03:00:00 14.1 0 Calma 10 Oeste 0 -- -- 98
2020-09-10 02:00:00 14 5 Sudoeste 8 Este 0 -- -- 97
2020-09-10 01:00:00 15.1 6 Sudeste 10 Sudeste 0 -- -- 95
2020-09-10 00:00:00 15.8 4 Oeste 5 Oeste 0 -- -- 93
2020-09-09 23:00:00 16.6 0 Calma 4 Nordeste 0 -- -- 92
2020-09-09 22:00:00 17.1 2 Este 15 Sudeste 0 -- -- 89
2020-09-09 21:00:00 18.2 10 Sudeste 21 Este 0 -- -- 84
2020-09-09 20:00:00 21.9 12 Sudeste 18 Sudeste 0 -- -- 67
2020-09-09 19:00:00 24.4 4 Sur 11 Oeste 0 -- -- 59
2020-09-09 18:00:00 24.5 7 Sudeste 21 Este 0 -- -- 66
2020-09-09 17:00:00 24.7 4 Oeste 19 Oeste 0 -- -- 69
2020-09-09 16:00:00 23.9 13 Oeste 23 Noroeste 0 -- -- 69
2020-09-09 15:00:00 24 12 Oeste 20 Oeste 0 -- -- 67
2020-09-09 14:00:00 23.3 4 Noroeste 15 Oeste 0 -- -- 64
2020-09-09 13:00:00 21.9 8 Sudoeste 18 Oeste 0 -- -- 68
2020-09-09 12:00:00 20.5 5 Oeste 8 Sudoeste 0 -- -- 72
2020-09-09 11:00:00 17.4 3 Oeste 5 Sudoeste 0 -- -- 89
2020-09-09 10:00:00 14.3 0 Calma 4 Este 0 -- -- 98
2020-09-09 09:00:00 13 2 Oeste 7 Oeste 0 -- -- 97
2020-09-09 08:00:00 12.5 4 Oeste 6 Oeste 0 -- -- 99
2020-09-09 07:00:00 12.5 2 Oeste 6 Noroeste 0 -- -- 100
2020-09-09 06:00:00 12.6 0 Calma 3 Oeste 0 -- -- 99
2020-09-09 05:00:00 12.6 2 Sudoeste 4 Sudoeste 0 -- -- 98
2020-09-09 04:00:00 13.1 0 Calma 8 Oeste 0 -- -- 97
2020-09-09 03:00:00 13.3 5 Oeste -- -- 0 -- -- 97
2020-09-09 02:00:00 13.6 3 Sudoeste 5 Oeste 0 -- -- 96
2020-09-09 01:00:00 13.9 3 Sudoeste 5 Sudoeste 0 -- -- 96
2020-09-09 00:00:00 14.2 2 Sur 8 Sudeste 0 -- -- 94
2020-09-08 23:00:00 14.7 2 Sudoeste 17 Sudeste 0 -- -- 92
2020-09-08 22:00:00 15.2 13 Sudeste 17 Sudeste 0 -- -- 90
2020-09-08 21:00:00 16.7 11 Sudeste 21 Sudeste 0 -- -- 83
2020-09-08 20:00:00 19.6 11 Este 27 Sudeste 0 -- -- 73
2020-09-08 19:00:00 21.2 16 Este 30 Este 0 -- -- 68
2020-09-08 18:00:00 22.2 14 Este 33 Este 0 -- -- 66
2020-09-08 17:00:00 22.4 18 Este 39 Este 0 -- -- 67
2020-09-08 16:00:00 22.2 24 Este 42 Este 0 -- -- 66
2020-09-08 15:00:00 22.1 26 Este 46 Este 0 -- -- 65
2020-09-08 14:00:00 21.6 30 Este 44 Este 0 -- -- 58
2020-09-08 13:00:00 21.1 21 Este 40 Este 0 -- -- 62
2020-09-08 12:00:00 19.8 9 Sudeste 31 Sudeste 0 -- -- 62
2020-09-08 11:00:00 17.2 17 Sudeste 28 Sudeste 0 -- -- 70
2020-09-08 10:00:00 12.9 5 Sudeste 15 Sudeste 0 -- -- 88
2020-09-08 09:00:00 10.1 5 Sudeste 16 Sur 0 -- -- 94
2020-09-08 08:00:00 9.6 9 Sudeste 15 Sudeste 0 -- -- 93
2020-09-08 07:00:00 10.2 10 Sudeste 18 Sudeste 0 -- -- 91
2020-09-08 06:00:00 11 12 Sudeste 22 Sudeste 0 -- -- 88
2020-09-08 05:00:00 11.5 14 Sudeste 21 Sudeste 0 -- -- 87
2020-09-08 04:00:00 11.4 14 Sudeste 23 Sudeste 0 -- -- 91
2020-09-08 03:00:00 11.4 17 Sudeste 22 Sudeste 0 -- -- 94
2020-09-08 02:00:00 11.9 17 Sudeste 24 Sudeste 0 -- -- 95
2020-09-08 01:00:00 12.2 15 Sudeste 25 Sudeste 0 -- -- 96
2020-09-08 00:00:00 12.6 14 Sudeste 23 Sudeste 0 -- -- 95
2020-09-07 23:00:00 13.2 16 Sudeste 27 Sudeste 0 -- -- 93
2020-09-07 22:00:00 13.6 14 Este 34 Este 0 -- -- 91
2020-09-07 21:00:00 14.6 11 Este 26 Este 0 -- -- 88
2020-09-07 20:00:00 17 14 Este 32 Sudeste 0 -- -- 79
2020-09-07 19:00:00 18.2 19 Este 39 Este 0 -- -- 75
2020-09-07 18:00:00 18.9 23 Este 37 Este 0 -- -- 74
2020-09-07 17:00:00 19.2 22 Este 40 Este 0 -- -- 72
2020-09-07 16:00:00 18.5 17 Este 34 Este 0 -- -- 76
2020-09-07 15:00:00 20.5 22 Este 36 Este 0 -- -- 69
2020-09-07 14:00:00 20.8 17 Este 32 Sudeste 0 -- -- 67
2020-09-07 13:00:00 19 17 Este 28 Este 0 -- -- 77
2020-09-07 12:00:00 16.5 18 Este 30 Este 0 -- -- 84
2020-09-07 11:00:00 16.2 10 Sudeste 17 Sudeste 0 -- -- 91
2020-09-07 10:00:00 13.7 2 Este 5 Sudeste 0 -- -- 100
2020-09-07 09:00:00 12.1 3 Sudoeste 11 Sudeste 0 -- -- 100
2020-09-07 08:00:00 11.9 5 Sudeste 8 Sudeste 0 -- -- 99
2020-09-07 07:00:00 12.4 5 Sudeste 10 Este 0 -- -- 99
2020-09-07 06:00:00 12.9 0 Calma 4 Sudeste 0 -- -- 99
2020-09-07 05:00:00 13.1 0 Calma 6 Sudeste 0 -- -- 100
2020-09-07 04:00:00 13.2 4 Sudeste 12 Sudeste 0.2 -- -- 100
2020-09-07 03:00:00 13.4 7 Sur 11 Sudeste 0 -- -- 99
2020-09-07 02:00:00 13.5 6 Sudeste 12 Sudeste 0 -- -- 99
2020-09-07 01:00:00 13.4 3 Sur 9 Sudeste 0 -- -- 98
2020-09-07 00:00:00 13.7 4 Sudeste 8 Este 0 -- -- 96
2020-09-06 23:00:00 13.6 3 Sudoeste 6 Sudoeste 0 -- -- 95
2020-09-06 22:00:00 13.7 5 Sudoeste 12 Sudeste 0 -- -- 94
2020-09-06 21:00:00 14.5 4 Este 10 Este 0 -- -- 89
2020-09-06 20:00:00 15.7 5 Sudeste 9 Sudeste 0 -- -- 86
2020-09-06 19:00:00 16.6 3 Sudeste 12 Este 0 -- -- 87
2020-09-06 18:00:00 16.8 4 Sudeste 13 Sudeste 0 -- -- 85
2020-09-06 17:00:00 16 2 Este 10 Sudeste 0 -- -- 93
2020-09-06 16:00:00 15.7 4 Sudoeste 11 Sudoeste 0 -- -- 91
2020-09-06 15:00:00 16.6 6 Sudoeste 10 Oeste 0 -- -- 87
2020-09-06 14:00:00 17.8 4 Este 14 Este 0 -- -- 87
2020-09-06 13:00:00 17.1 5 Sudeste 13 Sudeste 0 -- -- 89
2020-09-06 12:00:00 16.2 6 Sudeste 15 Este 0 -- -- 97
2020-09-06 11:00:00 15.7 8 Sudeste 14 Sudeste 0 -- -- 100
2020-09-06 10:00:00 14.4 0 Calma 6 Sudeste 0 -- -- 100
2020-09-06 09:00:00 13.4 2 Sudeste 8 Sudeste 0 -- -- 100
2020-09-06 08:00:00 13.2 5 Sudeste 13 Sudeste 0 -- -- 100
2020-09-06 07:00:00 13.4 7 Sudeste 14 Sudeste 0 -- -- 100
2020-09-06 06:00:00 13.7 9 Sudeste 14 Sudeste 0 -- -- 100
2020-09-06 05:00:00 14.2 9 Sudeste 15 Sudeste 0.2 -- -- 100
2020-09-06 04:00:00 14.5 9 Este 18 Este 0 -- -- 100
2020-09-06 03:00:00 14.9 8 Sudeste 16 Este 0 -- -- 100
2020-09-06 02:00:00 14.9 8 Sudeste 19 Este 0 -- -- 100
2020-09-06 01:00:00 15.1 9 Sudeste 14 Este 0 -- -- 100
2020-09-06 00:00:00 15.2 6 Sudeste 13 Este 0.2 -- -- 100
2020-09-05 23:00:00 15.2 7 Sudeste 12 Este 0 -- -- 100
2020-09-05 22:00:00 15.4 5 Sudeste 15 Este 0 -- -- 100
2020-09-05 21:00:00 15.6 6 Sudeste 12 Sudeste 0 -- -- 99
2020-09-05 20:00:00 15.9 5 Sur 14 Sudeste 0 -- -- 98
2020-09-05 19:00:00 16.7 8 Sudeste 14 Sudeste 0 -- -- 96
2020-09-05 18:00:00 18 5 Nordeste 8 Este 0 -- -- 97
2020-09-05 17:00:00 18.1 0 Calma 5 Sudoeste 0 -- -- 96
2020-09-05 16:00:00 17.7 0 Calma 8 Sur 0 -- -- 98
2020-09-05 15:00:00 17.2 2 Sudeste 9 Sudoeste 0.8 -- -- 99
2020-09-05 14:00:00 17.6 3 Sur 11 Este 1.4 -- -- 100
2020-09-05 13:00:00 17.9 0 Calma 7 Sudeste 0.4 -- -- 100
2020-09-05 12:00:00 16.9 2 Sur 9 Sudoeste 0.6 -- -- 100
2020-09-05 11:00:00 16.4 6 Sudoeste 10 Sudoeste 1.6 -- -- 100
2020-09-05 10:00:00 16.3 7 Oeste 15 Sudoeste 0.8 -- -- 100
2020-09-05 09:00:00 16.6 9 Oeste 12 Oeste 0 -- -- 100
2020-09-05 08:00:00 16.7 10 Oeste 15 Oeste 0.4 -- -- 100
2020-09-05 07:00:00 16.7 9 Sudoeste 15 Oeste 0.2 -- -- 100
2020-09-05 06:00:00 17.2 10 Oeste 14 Oeste 0.2 -- -- 100
2020-09-05 05:00:00 17.4 8 Oeste 13 Oeste 0.2 -- -- 100
2020-09-05 04:00:00 17.6 9 Noroeste 13 Oeste 0 -- -- 99
2020-09-05 03:00:00 17.8 10 Oeste 16 Noroeste 0 -- -- 98
2020-09-05 02:00:00 18.1 13 Noroeste 18 Oeste 0 -- -- 98
2020-09-05 01:00:00 18.4 10 Oeste 14 Noroeste 0 -- -- 99
2020-09-05 00:00:00 18.4 12 Noroeste 21 Noroeste 0 -- -- 98
2020-09-04 23:00:00 18.7 14 Oeste 23 Oeste 0 -- -- 95
2020-09-04 22:00:00 22.4 0 Calma 9 Noroeste 0 -- -- 69
2020-09-04 21:00:00 24.1 8 Noroeste 22 Oeste 0 -- -- 59
2020-09-04 20:00:00 26.4 14 Oeste 21 Oeste 0 -- -- 53
2020-09-04 19:00:00 30.1 4 Sur 15 Sur 0 -- -- 50
2020-09-04 18:00:00 31.6 7 Sudoeste 19 Oeste 0 -- -- 42
2020-09-04 17:00:00 30.9 9 Noroeste 19 Norte 0 -- -- 41
2020-09-04 16:00:00 31.4 10 Noroeste 16 Oeste 0 -- -- 44
2020-09-04 15:00:00 32.4 5 Sur 9 Sur 0 -- -- 43
2020-09-04 14:00:00 30.5 5 Sur 9 Sur 0 -- -- 50
2020-09-04 13:00:00 27.8 2 Oeste 6 Nordeste 0 -- -- 55
2020-09-04 12:00:00 25.2 2 Sudoeste 8 Este 0 -- -- 67
2020-09-04 11:00:00 21.8 0 Calma 8 Este 0 -- -- 72
2020-09-04 10:00:00 18.2 2 Nordeste 5 Oeste 0 -- -- 75
2020-09-04 09:00:00 16.5 0 Calma 4 Sudoeste 0 -- -- 79
2020-09-04 08:00:00 16 3 Sur 6 Sur 0 -- -- 77
2020-09-04 07:00:00 15.9 3 Este 8 Nordeste 0 -- -- 82
2020-09-04 06:00:00 16.2 2 Nordeste 4 Este 0 -- -- 83
2020-09-04 05:00:00 15.9 2 Sudeste 8 Este 0 -- -- 89
2020-09-04 04:00:00 16.4 4 Sudeste 14 Este 0 -- -- 88
2020-09-04 03:00:00 16.8 9 Sudeste 14 Este 0 -- -- 89
2020-09-04 02:00:00 17.9 0 Calma 5 Sudoeste 0 -- -- 87
2020-09-04 01:00:00 17.8 4 Este 8 Sudeste 0 -- -- 86
2020-09-04 00:00:00 18.1 5 Este 8 Este 0 -- -- 87
2020-09-03 23:00:00 19.3 4 Nordeste 8 Sudeste 0 -- -- 85
2020-09-03 22:00:00 19.9 5 Sudeste 12 Sudeste 0 -- -- 81
2020-09-03 21:00:00 21.7 9 Sudeste 14 Sudeste 0 -- -- 74
2020-09-03 20:00:00 24.8 10 Sudeste 12 Sudeste 0 -- -- 64
2020-09-03 19:00:00 27.9 4 Noroeste 13 Oeste -- -- -- 59
2020-09-03 18:00:00 28.1 7 Oeste 19 Oeste 0 -- -- 60
2020-09-03 17:00:00 27.3 13 Oeste 19 Oeste 0 -- -- 60
2020-09-03 16:00:00 27.4 12 Oeste 19 Oeste 0 -- -- 60
2020-09-03 15:00:00 27.8 10 Oeste 15 Noroeste 0 -- -- 54
2020-09-03 14:00:00 27.1 3 Sur 10 Oeste 0 -- -- 55
2020-09-03 13:00:00 24.7 3 Sur 6 Noroeste 0 -- -- 66
2020-09-03 12:00:00 21.6 0 Calma 4 Oeste 0 -- -- 81
2020-09-03 11:00:00 18.3 2 Oeste 5 Sudoeste 0 -- -- 92
2020-09-03 10:00:00 14.9 0 Calma 4 Este 0 -- -- 100
2020-09-03 09:00:00 13.6 3 Sur 9 Sudeste 0 -- -- 100
2020-09-03 08:00:00 13 5 Sudeste 7 Sudeste 0 -- -- 100
2020-09-03 07:00:00 13.1 2 Sur 6 Este 0 -- -- 100
2020-09-03 06:00:00 13.4 0 Calma 4 Este 0 -- -- 100
2020-09-03 05:00:00 13.5 5 Sudoeste 6 Sudoeste 0 -- -- 99
2020-09-03 04:00:00 13.9 3 Este 3 Este 0 -- -- 99
2020-09-03 03:00:00 13.9 0 Calma 7 Este 0 -- -- 99
2020-09-03 02:00:00 13.9 7 Sudeste 9 Este 0 -- -- 98
2020-09-03 01:00:00 14.4 5 Sudeste 9 Sudeste 0 -- -- 97
2020-09-03 00:00:00 14.8 3 Sudeste 8 Este 0 -- -- 94
2020-09-02 23:00:00 15.1 8 Este 15 Sudeste 0 -- -- 92
2020-09-02 22:00:00 15.7 11 Sudeste 19 Sudeste 0 -- -- 89
2020-09-02 21:00:00 17.4 12 Sudeste 26 Sudeste 0 -- -- 83
2020-09-02 20:00:00 20.4 16 Sudeste 27 Sudeste 0 -- -- 75
2020-09-02 19:00:00 22.4 14 Este 26 Este 0 -- -- 70
2020-09-02 18:00:00 23.8 14 Este 23 Nordeste 0 -- -- 67
2020-09-02 17:00:00 22.6 6 Este 13 Este 0 -- -- 72
2020-09-02 16:00:00 24.1 6 Este 13 Este 0 -- -- 66
2020-09-02 15:00:00 22 5 Noroeste 14 Este 0 -- -- 73
2020-09-02 14:00:00 22.1 5 Oeste 16 Oeste 0 -- -- 69
2020-09-02 13:00:00 21.7 7 Sudoeste 21 Sur 0 -- -- 67
2020-09-02 12:00:00 19.8 8 Sudeste 16 Este 0 -- -- 75
2020-09-02 11:00:00 16.4 2 Noroeste 7 Sudoeste 0 -- -- 89
2020-09-02 10:00:00 12.9 5 Sudoeste 9 Sudeste 0 -- -- 100
2020-09-02 09:00:00 11.9 3 Nordeste 9 Sudeste 0 -- -- 100
2020-09-02 08:00:00 11.6 5 Sudeste 8 Sudeste 0 -- -- 100
2020-09-02 07:00:00 12.1 3 Sudeste 6 Sudeste 0 -- -- 100
2020-09-02 06:00:00 12.3 0 Calma 3 Este 0 -- -- 100
2020-09-02 05:00:00 12.5 2 Oeste 5 Sudoeste 0 -- -- 100
2020-09-02 04:00:00 12.5 0 Calma 7 Sudoeste 0 -- -- 99
2020-09-02 03:00:00 12.7 4 Sudeste 8 Sudeste 0 -- -- 98
2020-09-02 02:00:00 13.3 4 Sudeste 5 Sudeste 0 -- -- 97
2020-09-02 01:00:00 13.4 3 Este 4 Este 0 -- -- 96
2020-09-02 00:00:00 13.8 4 Oeste 7 Sudoeste 0 -- -- 95
2020-09-01 23:00:00 14.5 5 Oeste 11 Sudoeste 0 -- -- 94
2020-09-01 22:00:00 15.2 8 Oeste 16 Oeste 0 -- -- 90
2020-09-01 21:00:00 16 13 Oeste 21 Oeste 0 -- -- 85
2020-09-01 20:00:00 16.7 15 Oeste 22 Oeste 0 -- -- 82
2020-09-01 19:00:00 18.6 2 Norte 18 Nordeste 0 -- -- 74
2020-09-01 18:00:00 20.9 6 Norte 18 Noroeste 0 -- -- 69
2020-09-01 17:00:00 20.5 7 Norte 19 Oeste 0 -- -- 74
2020-09-01 16:00:00 20.8 4 Norte 23 Oeste 0 -- -- 71
2020-09-01 15:00:00 21.5 15 Noroeste 26 Oeste 0 -- -- 69
2020-09-01 14:00:00 21.6 12 Oeste 20 Oeste 0 -- -- 71
2020-09-01 13:00:00 22.3 8 Oeste 14 Oeste 0 -- -- 68
2020-09-01 12:00:00 20 3 Sudoeste 7 Sudoeste 0 -- -- 67
2020-09-01 11:00:00 17.7 4 Sudoeste 8 Oeste 0 -- -- 82
2020-09-01 10:00:00 14.4 5 Sudoeste 7 Sudoeste 0 -- -- 86
2020-09-01 09:00:00 13.1 5 Sudoeste 6 Sudoeste 0 -- -- 84
2020-09-01 08:00:00 12.7 0 Calma 4 Sudoeste 0 -- -- 85
2020-09-01 07:00:00 13.1 0 Calma 3 Oeste 0 -- -- 83
2020-09-01 06:00:00 12.9 3 Sudoeste 5 Oeste 0 -- -- 87
2020-09-01 05:00:00 13.4 3 Sudoeste 6 Sudoeste 0 -- -- 85
2020-09-01 04:00:00 13.5 0 Calma 4 Este 0 -- -- 86
2020-09-01 03:00:00 13.8 2 Nordeste 3 Nordeste 0 -- -- 88
2020-09-01 02:00:00 14.4 0 Calma 5 Oeste 0 -- -- 86
2020-09-01 01:00:00 14.4 6 Sudoeste 8 Sudoeste 0 -- -- 88
2020-09-01 00:00:00 14.6 8 Sudeste 13 Sudeste 0 -- -- 89
2020-08-31 23:00:00 15.5 5 Sudeste 7 Sudeste 0 -- -- 86
2020-08-31 22:00:00 15.9 4 Sur 15 Sudeste 0 -- -- 84
2020-08-31 21:00:00 16.8 11 Sudeste 14 Sudeste 0 -- -- 81
2020-08-31 20:00:00 17.8 11 Sudeste 19 Sudeste 0 -- -- 75
2020-08-31 19:00:00 19.8 10 Sudeste 13 Sudeste 0 -- -- 68
2020-08-31 18:00:00 21 4 Sudoeste 12 Noroeste 0 -- -- 57
2020-08-31 17:00:00 21.7 9 Noroeste 16 Norte 0 -- -- 48
2020-08-31 16:00:00 23.4 9 Noroeste 15 Noroeste 0 -- -- 45
2020-08-31 15:00:00 23 7 Oeste 14 Oeste 0 -- -- 52
2020-08-31 14:00:00 22.9 3 Sur 13 Este 0 -- -- 56
2020-08-31 13:00:00 20.1 2 Sudoeste 7 Oeste 0 -- -- 57
2020-08-31 12:00:00 17.1 3 Sudoeste 8 Oeste 0 -- -- 66
2020-08-31 11:00:00 14 0 Calma 4 Oeste 0 -- -- 84
2020-08-31 10:00:00 10.2 0 Calma 8 Sudeste 0 -- -- 99
2020-08-31 09:00:00 8.5 2 Este 6 Este 0 -- -- 99
2020-08-31 08:00:00 8.2 4 Este 5 Este 0 -- -- 98
2020-08-31 07:00:00 8.3 0 Calma 11 Sudeste 0 -- -- 99
2020-08-31 06:00:00 8.3 6 Sudeste 12 Sudeste 0 -- -- 99
2020-08-31 05:00:00 8.6 6 Sudeste 15 Sudeste 0 -- -- 99
2020-08-31 04:00:00 8.7 2 Nordeste 6 Este 0 -- -- 98
2020-08-31 03:00:00 9 0 Calma 6 Sudeste 0 -- -- 98
2020-08-31 02:00:00 9.2 5 Sudeste 9 Sudeste 0 -- -- 98
2020-08-31 01:00:00 9.7 4 Sudeste 9 Este 0 -- -- 96
2020-08-31 00:00:00 10.4 6 Sudeste 9 Sudeste 0 -- -- 94
2020-08-30 23:00:00 11.2 6 Sudeste 9 Sudeste 0 -- -- 90
2020-08-30 22:00:00 12 6 Sudeste 13 Este 0 -- -- 86
2020-08-30 21:00:00 14.8 6 Sudeste 14 Oeste 0 -- -- 77
2020-08-30 20:00:00 16.4 11 Oeste 21 Oeste 0 -- -- 71
2020-08-30 19:00:00 16.9 15 Oeste 23 Oeste 0 -- -- 68
2020-08-30 18:00:00 17.7 17 Oeste 27 Noroeste 0 -- -- 67
2020-08-30 17:00:00 16.5 17 Oeste 24 Oeste 0 -- -- 71
2020-08-30 16:00:00 16.4 3 Nordeste 19 Norte 0 -- -- 77
2020-08-30 15:00:00 16.9 5 Noroeste 14 Oeste 0 -- -- 71
2020-08-30 14:00:00 15.2 8 Noroeste 21 Oeste 0 -- -- 75
2020-08-30 13:00:00 12.6 17 Oeste 29 Norte 0.8 -- -- 94
2020-08-30 12:00:00 15 3 Oeste 9 Nordeste 0 -- -- 89
2020-08-30 11:00:00 12.8 3 Sudoeste 10 Sudoeste 0.2 -- -- 100
2020-08-30 10:00:00 11.2 9 Noroeste 21 Norte 0.4 -- -- 100
2020-08-30 09:00:00 10.7 3 Norte 12 Noroeste 0 -- -- 100
2020-08-30 08:00:00 10.1 6 Noroeste 27 Oeste 1 -- -- 100
2020-08-30 07:00:00 10.4 0 Calma 8 Nordeste 0.2 -- -- 100
2020-08-30 06:00:00 10.4 3 Nordeste 12 Sudoeste 2.2 -- -- 100
2020-08-30 05:00:00 10.4 4 Noroeste 15 Oeste 1.8 -- -- 100
2020-08-30 04:00:00 10.3 6 Norte 9 Norte 0.4 -- -- 100
2020-08-30 03:00:00 10.2 4 Norte 12 Norte 0.2 -- -- 100
2020-08-30 02:00:00 10.3 7 Norte 14 Noroeste 1.8 -- -- 100
2020-08-30 01:00:00 10.3 6 Oeste 10 Noroeste 1.4 -- -- 100
2020-08-30 00:00:00 10.4 4 Norte 25 Norte 1.8 -- -- 100
2020-08-29 23:00:00 10.9 13 Norte 35 Oeste 0.6 -- -- 100
2020-08-29 22:00:00 11.3 22 Noroeste 32 Oeste 0.6 -- -- 100
2020-08-29 21:00:00 11.6 5 Noroeste 13 Oeste 0 -- -- 99
2020-08-29 20:00:00 11.7 11 Oeste 24 Oeste 0.6 -- -- 98
2020-08-29 19:00:00 11.8 12 Oeste 28 Oeste 1 -- -- 99
2020-08-29 18:00:00 11.7 23 Oeste 33 Oeste 3 -- -- 99
2020-08-29 17:00:00 12.4 20 Noroeste 50 Noroeste 4 -- -- 99
2020-08-29 16:00:00 12.2 24 Oeste 42 Oeste 10 -- -- 99
2020-08-29 15:00:00 12.4 19 Oeste 33 Oeste 12 -- -- 100
2020-08-29 14:00:00 12.9 19 Oeste 32 Oeste 4 -- -- 100
2020-08-29 13:00:00 12.1 7 Sudoeste 15 Oeste 7 -- -- 100
2020-08-29 12:00:00 11.9 6 Noroeste 17 Oeste 8 -- -- 100
2020-08-29 11:00:00 12 6 Noroeste 26 Oeste 2.2 -- -- 100
2020-08-29 10:00:00 12.1 10 Noroeste 23 Oeste 0.8 -- -- 100
2020-08-29 09:00:00 11.7 17 Noroeste 29 Noroeste 0.8 -- -- 99
2020-08-29 08:00:00 11.7 14 Noroeste 22 Noroeste 0.4 -- -- 97
2020-08-29 07:00:00 11.5 10 Noroeste 26 Oeste 0.6 -- -- 99
2020-08-29 06:00:00 11.7 15 Noroeste 26 Oeste 1.2 -- -- 97
2020-08-29 05:00:00 11.9 12 Noroeste 25 Noroeste 0.2 -- -- 95
2020-08-29 04:00:00 12.5 14 Noroeste 30 Noroeste 0 -- -- 87
2020-08-29 03:00:00 12.8 14 Noroeste 28 Noroeste 0 -- -- 85
2020-08-29 02:00:00 12.5 15 Noroeste 27 Noroeste 0 -- -- 86
2020-08-29 01:00:00 13.5 19 Noroeste 28 Noroeste 0 -- -- 75
2020-08-29 00:00:00 13.4 16 Noroeste 32 Oeste 0 -- -- 75
2020-08-28 23:00:00 13.6 18 Oeste 35 Oeste 0 -- -- 79
2020-08-28 22:00:00 13.8 17 Noroeste 35 Oeste 0 -- -- 84
2020-08-28 21:00:00 13.8 20 Oeste 33 Oeste 0.6 -- -- 88
2020-08-28 20:00:00 16.1 15 Noroeste 35 Oeste 0 -- -- 70
2020-08-28 19:00:00 17.3 24 Noroeste 39 Noroeste 0 -- -- 68
2020-08-28 18:00:00 19.7 19 Noroeste 43 Oeste 0 -- -- 65
2020-08-28 17:00:00 19.2 28 Noroeste 48 Oeste 0 -- -- 63
2020-08-28 16:00:00 19.9 33 Noroeste 60 Oeste 0 -- -- 59
2020-08-28 15:00:00 20 32 Oeste 54 Oeste 0 -- -- 66
2020-08-28 14:00:00 19.9 27 Noroeste 46 Norte 0 -- -- 64
2020-08-28 13:00:00 18.2 27 Oeste 45 Oeste 0 -- -- 67
2020-08-28 12:00:00 16.3 27 Oeste 44 Noroeste 0 -- -- 70
2020-08-28 11:00:00 15.6 20 Noroeste 39 Oeste 0 -- -- 83
2020-08-28 10:00:00 14.4 15 Noroeste 33 Oeste 0 -- -- 92
2020-08-28 09:00:00 13.2 23 Oeste 44 Oeste 0.2 -- -- 99
2020-08-28 08:00:00 13.9 15 Noroeste 42 Oeste 0 -- -- 100
2020-08-28 07:00:00 14 22 Oeste 37 Noroeste 0.4 -- -- 100
2020-08-28 06:00:00 15 17 Noroeste 30 Oeste 0.4 -- -- 100
2020-08-28 05:00:00 15.9 20 Noroeste 30 Noroeste 0.2 -- -- 100
2020-08-28 04:00:00 16.2 22 Noroeste 41 Oeste 0.2 -- -- 100
2020-08-28 03:00:00 16.8 23 Oeste 37 Noroeste 0.4 -- -- 99
2020-08-28 02:00:00 18 13 Noroeste 17 Noroeste 0 -- -- 100
2020-08-28 01:00:00 18.2 9 Noroeste 13 Noroeste 0 -- -- 98
2020-08-28 00:00:00 18.2 9 Oeste 20 Sudoeste 0 -- -- 97
2020-08-27 23:00:00 19.1 8 Noroeste 16 Noroeste 0 -- -- 92
2020-08-27 22:00:00 19.4 3 Sudoeste 8 Oeste 0 -- -- 92
2020-08-27 21:00:00 19.8 5 Sudoeste 8 Sudoeste 0 -- -- 89
2020-08-27 20:00:00 20.3 5 Sudoeste 16 Oeste 0 -- -- 86
2020-08-27 19:00:00 20.7 12 Oeste 21 Oeste 0 -- -- 83
2020-08-27 18:00:00 21.4 7 Oeste 17 Oeste 0 -- -- 83
2020-08-27 17:00:00 21.6 12 Oeste 23 Oeste 0 -- -- 82
2020-08-27 16:00:00 23 14 Oeste 26 Oeste 0 -- -- 82
2020-08-27 15:00:00 22.3 21 Oeste 39 Oeste 0 -- -- 84
2020-08-27 14:00:00 26.2 17 Oeste 29 Oeste 0 -- -- 70
2020-08-27 13:00:00 26.3 15 Norte 23 Norte 0 -- -- 70
2020-08-27 12:00:00 25.2 9 Noroeste 17 Noroeste 0 -- -- 76
2020-08-27 11:00:00 22.8 5 Oeste 10 Este 0 -- -- 88
2020-08-27 10:00:00 19.8 5 Nordeste 8 Nordeste 0 -- -- 100
2020-08-27 09:00:00 19 2 Este 7 Sudoeste 0 -- -- 100
2020-08-27 08:00:00 18 0 Calma 5 Sudoeste 0 -- -- 100
2020-08-27 07:00:00 17.7 3 Oeste 4 Sudoeste 0 -- -- 100
2020-08-27 06:00:00 18 2 Oeste 6 Sudoeste 0 -- -- 100
2020-08-27 05:00:00 18.4 3 Oeste 5 Sudoeste 0 -- -- 100
2020-08-27 04:00:00 18.5 4 Oeste 4 Oeste 0 -- -- 100
2020-08-27 03:00:00 18.7 3 Oeste 5 Oeste 0 -- -- 100
2020-08-27 02:00:00 18.9 3 Nordeste 6 Sudeste 0 -- -- 100
2020-08-27 01:00:00 18.9 3 Sur 11 Sudeste 0 -- -- 100
2020-08-27 00:00:00 19.1 9 Sudeste 12 Sudeste 0 -- -- 99
2020-08-26 23:00:00 19.3 9 Sudeste 14 Sudeste 0 -- -- 98
2020-08-26 22:00:00 19.6 10 Sudeste 17 Sudeste 0 -- -- 97
2020-08-26 21:00:00 20.3 12 Sur 15 Sur 0 -- -- 93
2020-08-26 20:00:00 21.1 14 Sudeste 19 Sudeste 0 -- -- 90
2020-08-26 19:00:00 22.4 8 Sudeste 12 Sudeste 0 -- -- 84
2020-08-26 18:00:00 22.4 4 Sudoeste 15 Oeste 0 -- -- 85
2020-08-26 17:00:00 23.2 10 Sudoeste 20 Sudoeste 0 -- -- 82
2020-08-26 16:00:00 24.1 15 Oeste 25 Oeste 0 -- -- 78
2020-08-26 15:00:00 27.6 10 Sudoeste 22 Oeste 0 -- -- 65
2020-08-26 14:00:00 27.4 13 Noroeste 19 Oeste 0 -- -- 66
2020-08-26 13:00:00 26.6 5 Noroeste 13 Sudeste 0 -- -- 63
2020-08-26 12:00:00 25.5 6 Este 13 Este 0 -- -- 67
2020-08-26 11:00:00 23.1 5 Este 11 Este 0 -- -- 76
2020-08-26 10:00:00 19.7 5 Sudeste 19 Sudeste 0 -- -- 92
2020-08-26 09:00:00 18 10 Sudeste 17 Sudeste 0 -- -- 98
2020-08-26 08:00:00 17.6 2 Nordeste 10 Sur 0 -- -- 98
2020-08-26 07:00:00 18 4 Sur 8 Sur 0 -- -- 97
2020-08-26 06:00:00 18.3 3 Sudeste 6 Este 0 -- -- 96
2020-08-26 05:00:00 18.5 5 Sudeste 9 Sudeste 0 -- -- 96
2020-08-26 04:00:00 18.6 8 Sudeste 9 Sudeste 0 -- -- 95
2020-08-26 03:00:00 18.7 3 Sur 9 Sudeste 0 -- -- 94
2020-08-26 02:00:00 18.8 7 Sudeste 10 Sudeste 0 -- -- 93
2020-08-26 01:00:00 19 7 Sudeste 11 Sudeste 0 -- -- 92
2020-08-26 00:00:00 19.3 6 Este 9 Sudeste 0 -- -- 90
2020-08-25 23:00:00 19.4 5 Sudoeste 12 Oeste 0 -- -- 91
2020-08-25 22:00:00 19.6 9 Sudoeste 21 Oeste 0 -- -- 89
2020-08-25 21:00:00 20.4 13 Oeste 24 Sudoeste 0 -- -- 84
2020-08-25 20:00:00 23 13 Oeste 26 Oeste 0 -- -- 73
2020-08-25 19:00:00 24.6 20 Oeste 37 Oeste 0 -- -- 65
2020-08-25 18:00:00 25.1 26 Oeste 36 Oeste 0 -- -- 60
2020-08-25 17:00:00 27.1 18 Oeste 24 Oeste 0 -- -- 57
2020-08-25 16:00:00 29 9 Noroeste 21 Noroeste 0 -- -- 50
2020-08-25 15:00:00 27.8 14 Noroeste 22 Noroeste 0 -- -- 53
2020-08-25 14:00:00 27.8 6 Sudoeste 18 Noroeste 0 -- -- 55
2020-08-25 13:00:00 26.1 8 Noroeste 21 Oeste 0 -- -- 52
2020-08-25 12:00:00 25 4 Sur 8 Oeste 0 -- -- 71
2020-08-25 11:00:00 21.9 3 Oeste 5 Sudoeste 0 -- -- 76
2020-08-25 10:00:00 18.7 3 Sudeste 7 Este 0 -- -- 84
2020-08-25 09:00:00 17.5 4 Sudeste 8 Este 0 -- -- 87
2020-08-25 08:00:00 17.6 0 Calma 10 Oeste 0 -- -- 82
2020-08-25 07:00:00 17 5 Sudoeste 7 Oeste 0 -- -- 86
2020-08-25 06:00:00 16.6 2 Noroeste 6 Este 0 -- -- 90
2020-08-25 05:00:00 17.2 0 Calma 4 Oeste 0 -- -- 88
2020-08-25 04:00:00 17 0 Calma 6 Oeste 0 -- -- 92
2020-08-25 03:00:00 16.8 0 Calma 5 Sudoeste 0 -- -- 95
2020-08-25 02:00:00 16.5 0 Calma 5 Sudeste 0 -- -- 95
2020-08-25 01:00:00 16.6 3 Sudeste 10 Sudeste 0 -- -- 95
2020-08-25 00:00:00 17 0 Calma 3 Sudoeste 0 -- -- 93
2020-08-24 23:00:00 17.1 3 Sur 11 Sudeste 0 -- -- 91
2020-08-24 22:00:00 17.9 11 Sudeste 17 Sudeste 0 -- -- 88
2020-08-24 21:00:00 19.8 14 Sudeste 20 Sudeste 0 -- -- 81
2020-08-24 20:00:00 22.6 12 Sudeste 17 Sudeste 0 -- -- 72
2020-08-24 19:00:00 24.7 13 Sudeste 22 Este 0 -- -- 65
2020-08-24 18:00:00 26.1 12 Sudeste 18 Este 0 -- -- 62
2020-08-24 17:00:00 26.6 11 Este 19 Este 0 -- -- 62
2020-08-24 16:00:00 26.5 10 Este 24 Este 0 -- -- 60
2020-08-24 15:00:00 25.7 10 Este 26 Este 0 -- -- 61
2020-08-24 14:00:00 25.4 8 Este 18 Nordeste 0 -- -- 62
2020-08-24 13:00:00 23.7 5 Sudoeste 18 Este 0 -- -- 65
2020-08-24 12:00:00 22 8 Este 23 Nordeste 0 -- -- 70
2020-08-24 11:00:00 19.3 10 Sudeste 18 Sudeste 0 -- -- 81
2020-08-24 10:00:00 16.9 6 Este 13 Sudeste 0 -- -- 97
2020-08-24 09:00:00 15.5 3 Noroeste 8 Nordeste 0 -- -- 99
2020-08-24 08:00:00 15.1 5 Sudoeste 6 Sudoeste 0 -- -- 98
2020-08-24 07:00:00 15.4 0 Calma 5 Nordeste 0 -- -- 96
2020-08-24 06:00:00 15.7 0 Calma 4 Oeste 0 -- -- 96
2020-08-24 05:00:00 15.7 0 Calma 9 Este 0 -- -- 95
2020-08-24 04:00:00 15.8 4 Sudeste 13 Sudeste 0 -- -- 95
2020-08-24 03:00:00 16 8 Sudeste 14 Sudeste 0 -- -- 96
2020-08-24 02:00:00 16.1 6 Este 13 Sudeste 0 -- -- 95
2020-08-24 01:00:00 16.2 7 Sudeste 12 Sudeste 0 -- -- 94
2020-08-24 00:00:00 16.4 4 Este 15 Este 0 -- -- 93
2020-08-23 23:00:00 16.5 5 Sudeste 15 Este 0 -- -- 93
2020-08-23 22:00:00 16.8 8 Este 13 Este 0 -- -- 92
2020-08-23 21:00:00 17.2 2 Este 12 Este 0 -- -- 90
2020-08-23 20:00:00 17.7 9 Este 20 Este 0 -- -- 88
2020-08-23 19:00:00 18.4 8 Sudoeste 12 Sudoeste 0 -- -- 86
2020-08-23 18:00:00 19.6 7 Sur 14 Sudoeste 0 -- -- 83
2020-08-23 17:00:00 21.3 3 Sur 15 Sudoeste 0 -- -- 76
2020-08-23 16:00:00 22.6 5 Sudoeste 13 Sudoeste 0 -- -- 73
2020-08-23 15:00:00 22.9 5 Sur 17 Este 0 -- -- 67
2020-08-23 14:00:00 24.6 6 Sur 20 Este 0 -- -- 61
2020-08-23 13:00:00 22.8 5 Sur 18 Sudeste 0 -- -- 62
2020-08-23 12:00:00 20.7 6 Este 13 Este 0 -- -- 77
2020-08-23 11:00:00 18.1 2 Oeste 6 Este 0 -- -- 95
2020-08-23 10:00:00 14.9 3 Sur 8 Este 0 -- -- 100
2020-08-23 09:00:00 13.4 0 Calma 4 Este 0 -- -- 100
2020-08-23 08:00:00 13.2 2 Nordeste 4 Este 0 -- -- 100
2020-08-23 07:00:00 13.7 2 Sudoeste 4 Oeste 0 -- -- 100
2020-08-23 06:00:00 13.6 2 Sur 4 Nordeste 0 -- -- 100
2020-08-23 05:00:00 13.8 0 Calma 4 Sudoeste 0 -- -- 100
2020-08-23 04:00:00 13.8 0 Calma 4 Sudeste 0 -- -- 100
2020-08-23 03:00:00 14.3 2 Este 6 Sudoeste 0 -- -- 100
2020-08-23 02:00:00 14.8 2 Noroeste 5 Sudoeste 0 -- -- 100
2020-08-23 01:00:00 15.1 3 Sudoeste 4 Sudoeste 0 -- -- 98
2020-08-23 00:00:00 15.5 0 Calma 4 Oeste 0 -- -- 98
2020-08-22 23:00:00 15.8 3 Sudoeste 4 Sudoeste 0 -- -- 98
2020-08-22 22:00:00 15.9 4 Sudeste 8 Sudeste 0 -- -- 98
2020-08-22 21:00:00 15.9 8 Sudeste 13 Sudeste 0 -- -- 97
2020-08-22 20:00:00 16.3 8 Oeste 13 Oeste 0 -- -- 94
2020-08-22 19:00:00 16.8 7 Sudoeste 12 Sudoeste 0 -- -- 92
2020-08-22 18:00:00 18.1 6 Sudeste 14 Sudeste 0 -- -- 87
2020-08-22 17:00:00 19.2 9 Sudeste 17 Este 0 -- -- 85
2020-08-22 16:00:00 19.1 5 Sudoeste 17 Oeste 0 -- -- 81
2020-08-22 15:00:00 18.2 11 Oeste 19 Oeste 0 -- -- 82
2020-08-22 14:00:00 18.4 9 Oeste 17 Oeste 0 -- -- 80
2020-08-22 13:00:00 20.2 3 Oeste 10 Sudeste 0 -- -- 85
2020-08-22 12:00:00 19.6 0 Calma 13 Oeste 0 -- -- 88
2020-08-22 11:00:00 18.7 8 Noroeste 14 Oeste 0 -- -- 95
2020-08-22 10:00:00 17.4 5 Oeste 7 Noroeste 0 -- -- 100
2020-08-22 09:00:00 16.7 3 Oeste 5 Oeste 1.8 -- -- 100
2020-08-22 08:00:00 15.8 0 Calma 6 Oeste 0 -- -- 100
2020-08-22 07:00:00 15.7 4 Sudoeste 8 Sudoeste 0 -- -- 100
2020-08-22 06:00:00 15.7 3 Oeste 13 Oeste 0 -- -- 100
2020-08-22 05:00:00 15.8 7 Oeste 14 Noroeste 0.6 -- -- 100
2020-08-22 04:00:00 15.9 9 Oeste 14 Noroeste 0.4 -- -- 100
2020-08-22 03:00:00 16.1 10 Oeste 13 Oeste 0.4 -- -- 98
2020-08-22 02:00:00 16.6 8 Oeste 10 Oeste 0 -- -- 94
2020-08-22 01:00:00 16.7 4 Oeste 5 Oeste 0 -- -- 94
2020-08-22 00:00:00 16.8 4 Sudoeste 15 Sudoeste 0 -- -- 92
2020-08-21 23:00:00 17.1 9 Oeste 14 Oeste 0 -- -- 92
2020-08-21 22:00:00 17.4 8 Sudoeste 13 Sudoeste 0 -- -- 92
2020-08-21 21:00:00 18.2 3 Nordeste 13 Este 0 -- -- 86
2020-08-21 20:00:00 19.1 3 Sudeste 13 Sudeste 0 -- -- 86
2020-08-21 19:00:00 18.7 6 Este 22 Este 0 -- -- 86
2020-08-21 18:00:00 19.6 11 Este 22 Este 0 -- -- 81
2020-08-21 17:00:00 20.9 9 Este 28 Sudeste 0 -- -- 78
2020-08-21 16:00:00 20.8 15 Este 34 Este 0 -- -- 77
2020-08-21 15:00:00 23.3 17 Este 32 Este 0 -- -- 74
2020-08-21 14:00:00 22.3 15 Este 27 Este 0 -- -- 77
2020-08-21 13:00:00 21.6 8 Este 23 Sudeste 0 -- -- 79
2020-08-21 12:00:00 21.8 6 Sudeste 20 Este 0 -- -- 79
2020-08-21 11:00:00 20.6 5 Este 22 Este 0 -- -- 91
2020-08-21 10:00:00 18.1 6 Sudeste 13 Este 0 -- -- 100
2020-08-21 09:00:00 17.3 0 Calma 9 Oeste 0 -- -- 100
2020-08-21 08:00:00 16.9 4 Oeste 7 Sudoeste 0 -- -- 100
2020-08-21 07:00:00 16.9 2 Oeste 13 Sudeste 0.2 -- -- 100
2020-08-21 06:00:00 17.2 4 Sudeste 11 Sudeste 0 -- -- 100
2020-08-21 05:00:00 17.7 3 Sudeste 9 Sudeste 0 -- -- 100
2020-08-21 04:00:00 17.7 0 Calma 3 Norte 0 -- -- 100
2020-08-21 03:00:00 17.8 3 Oeste 11 Oeste 0 -- -- 100
2020-08-21 02:00:00 17.9 5 Oeste 13 Norte 0 -- -- 100
2020-08-21 01:00:00 18.1 9 Noroeste 15 Norte 0 -- -- 100
2020-08-21 00:00:00 18.1 6 Noroeste 19 Oeste 0 -- -- 100